createdAt,value
2022-11-21T00:01:17.931Z,99748.34
2022-11-21T00:03:47.303Z,99752.31
2022-11-21T00:06:15.968Z,99742.00
2022-11-21T00:08:43.980Z,99729.47
2022-11-21T00:11:12.009Z,99739.22
2022-11-21T00:13:40.252Z,99727.13
2022-11-21T00:16:10.199Z,99730.28
2022-11-21T00:18:38.392Z,99728.34
2022-11-21T00:21:09.624Z,99720.56
2022-11-21T00:23:37.614Z,99718.53
2022-11-21T00:26:07.091Z,99728.88
2022-11-21T00:28:35.418Z,99726.78
2022-11-21T00:31:03.549Z,99704.91
2022-11-21T00:33:31.853Z,99697.06
2022-11-21T00:35:59.736Z,99691.97
2022-11-21T00:38:29.839Z,99702.28
2022-11-21T00:41:00.370Z,99696.63
2022-11-21T00:43:28.331Z,99703.44
2022-11-21T00:45:56.239Z,99692.22
2022-11-21T00:48:24.235Z,99699.41
2022-11-21T00:50:52.178Z,99701.78
2022-11-21T00:53:20.175Z,99690.81
2022-11-21T00:55:49.621Z,99692.06
2022-11-21T00:58:17.564Z,99667.91
2022-11-21T01:00:45.552Z,99683.81
2022-11-21T01:03:13.662Z,99659.44
2022-11-21T01:05:43.289Z,99663.22
2022-11-21T01:08:11.223Z,99646.72
2022-11-21T01:10:39.115Z,99638.81
2022-11-21T01:13:08.430Z,99640.38
2022-11-21T01:15:36.326Z,99623.06
2022-11-21T01:18:04.571Z,99633.75
2022-11-21T01:20:32.526Z,99632.63
2022-11-21T01:23:00.576Z,99648.66
2022-11-21T01:25:28.453Z,99646.44
2022-11-21T01:27:56.418Z,99597.25
2022-11-21T01:30:25.648Z,99646.28
2022-11-21T01:32:53.597Z,99639.81
2022-11-21T01:35:21.464Z,99632.66
2022-11-21T01:37:49.592Z,99624.94
2022-11-21T01:40:17.998Z,99622.56
2022-11-21T01:42:54.084Z,99621.53
2022-11-21T01:45:55.923Z,99618.72
2022-11-21T01:48:30.157Z,99631.94
2022-11-21T01:51:01.178Z,99623.31
2022-11-21T01:53:29.218Z,99597.31
2022-11-21T01:55:57.193Z,99585.69
2022-11-21T01:58:26.453Z,99592.88
2022-11-21T02:00:59.422Z,99583.66
2022-11-21T02:03:31.197Z,99599.13
2022-11-21T02:05:59.609Z,99593.41
2022-11-21T02:08:28.457Z,99585.06
2022-11-21T02:11:07.426Z,99590.91
2022-11-21T02:13:35.373Z,99587.94
2022-11-21T02:16:05.178Z,99586.13
2022-11-21T02:18:33.209Z,99586.09
2022-11-21T02:21:09.308Z,99579.63
2022-11-21T02:23:43.810Z,99580.53
2022-11-21T02:26:14.177Z,99568.69
2022-11-21T02:28:42.450Z,99575.88
2022-11-21T02:31:10.398Z,99585.16
2022-11-21T02:33:38.862Z,99566.59
2022-11-21T02:36:37.143Z,99564.53
2022-11-21T02:39:06.484Z,99545.22
2022-11-21T02:41:38.782Z,99557.47
2022-11-21T02:44:10.895Z,99560.66
2022-11-21T02:46:48.716Z,99559.38
2022-11-21T02:49:20.753Z,99560.16
2022-11-21T02:51:49.388Z,99545.94
2022-11-21T02:54:17.266Z,99548.16
2022-11-21T02:56:46.603Z,99568.97
2022-11-21T02:59:14.497Z,99571.81
2022-11-21T03:01:45.136Z,99576.09
2022-11-21T03:04:13.117Z,99561.06
2022-11-21T03:06:41.169Z,99568.97
2022-11-21T03:09:09.083Z,99555.50
2022-11-21T03:11:37.215Z,99551.59
2022-11-21T03:14:06.455Z,99557.81
2022-11-21T03:16:34.486Z,99538.28
2022-11-21T03:19:02.497Z,99541.34
2022-11-21T03:21:30.433Z,99538.53
2022-11-21T03:23:58.300Z,99528.03
2022-11-21T03:26:26.241Z,99525.41
2022-11-21T03:28:54.157Z,99522.91
2022-11-21T03:31:23.548Z,99534.03
2022-11-21T03:33:51.434Z,99508.72
2022-11-21T03:36:19.437Z,99527.75
2022-11-21T03:38:47.382Z,99502.19
2022-11-21T03:41:29.185Z,99524.88
2022-11-21T03:43:57.772Z,99508.53
2022-11-21T03:46:29.633Z,99497.97
2022-11-21T03:48:58.893Z,99511.13
2022-11-21T03:51:27.120Z,99515.69
2022-11-21T03:53:55.944Z,99506.28
2022-11-21T03:56:28.417Z,99522.81
2022-11-21T03:58:56.660Z,99512.38
2022-11-21T04:01:24.878Z,99512.50
2022-11-21T04:03:54.292Z,99484.16
2022-11-21T04:06:23.359Z,99513.56
2022-11-21T04:08:51.797Z,99513.13
2022-11-21T04:11:23.470Z,99520.28
2022-11-21T04:13:51.515Z,99510.72
2022-11-21T04:16:19.585Z,99512.19
2022-11-21T04:18:48.188Z,99513.69
2022-11-21T04:21:17.444Z,99527.69
2022-11-21T04:23:45.390Z,99537.00
2022-11-21T04:26:13.304Z,99519.88
2022-11-21T04:28:41.287Z,99517.19
2022-11-21T04:31:11.452Z,99519.47
2022-11-21T04:33:39.822Z,99489.50
2022-11-21T04:36:08.454Z,99513.84
2022-11-21T04:38:38.262Z,99512.66
2022-11-21T04:41:06.226Z,99508.97
2022-11-21T04:43:34.190Z,99531.81
2022-11-21T04:46:02.170Z,99518.84
2022-11-21T04:48:30.036Z,99512.66
2022-11-21T04:50:58.034Z,99506.78
2022-11-21T04:53:25.920Z,99502.19
2022-11-21T04:55:55.375Z,99502.59
2022-11-21T04:58:23.286Z,99491.13
2022-11-21T05:00:51.661Z,99484.28
2022-11-21T05:03:19.637Z,99513.03
2022-11-21T05:05:47.608Z,99499.09
2022-11-21T05:08:15.540Z,99504.13
2022-11-21T05:11:02.099Z,99512.31
2022-11-21T05:13:31.597Z,99509.31
2022-11-21T05:15:59.910Z,99512.03
2022-11-21T05:18:28.268Z,99506.31
2022-11-21T05:20:56.313Z,99482.97
2022-11-21T05:23:24.463Z,99486.78
2022-11-21T05:25:52.509Z,99493.41
2022-11-21T05:28:20.733Z,99502.53
2022-11-21T05:30:50.099Z,99501.47
2022-11-21T05:33:18.153Z,99508.16
2022-11-21T05:35:46.148Z,99510.09
2022-11-21T05:38:14.505Z,99510.66
2022-11-21T05:40:42.474Z,99504.88
2022-11-21T05:43:30.461Z,99512.47
2022-11-21T05:46:00.128Z,99500.66
2022-11-21T05:48:28.189Z,99483.88
2022-11-21T05:50:56.378Z,99490.28
2022-11-21T05:53:24.485Z,99492.00
2022-11-21T05:55:52.844Z,99491.63
2022-11-21T05:58:21.318Z,99494.28
2022-11-21T06:00:49.280Z,99498.28
2022-11-21T06:03:30.880Z,99486.78
2022-11-21T06:06:05.111Z,99495.41
2022-11-21T06:08:35.638Z,99487.97
2022-11-21T06:11:05.111Z,99499.63
2022-11-21T06:13:33.860Z,99489.25
2022-11-21T06:16:03.998Z,99502.53
2022-11-21T06:18:37.872Z,99475.47
2022-11-21T06:21:08.679Z,99502.72
2022-11-21T06:23:37.268Z,99496.91
2022-11-21T06:26:06.617Z,99519.84
2022-11-21T06:28:36.296Z,99507.00
2022-11-21T06:31:05.175Z,99508.97
2022-11-21T06:33:37.547Z,99508.78
2022-11-21T06:36:06.655Z,99496.84
2022-11-21T06:38:34.805Z,99485.50
2022-11-21T06:41:06.633Z,99497.78
2022-11-21T06:43:35.165Z,99488.59
2022-11-21T06:46:04.350Z,99508.56
2022-11-21T06:48:34.607Z,99496.97
2022-11-21T06:51:06.435Z,99492.75
2022-11-21T06:53:34.905Z,99498.31
2022-11-21T06:56:03.024Z,99509.44
2022-11-21T06:58:31.207Z,99504.72
2022-11-21T07:00:59.987Z,99517.16
2022-11-21T07:03:27.957Z,99508.03
2022-11-21T07:05:59.646Z,99515.47
2022-11-21T07:08:28.156Z,99507.91
2022-11-21T07:11:23.182Z,99527.94
2022-11-21T07:13:44.396Z,99519.84
2022-11-21T07:16:14.840Z,99519.22
2022-11-21T07:18:44.467Z,99527.69
2022-11-21T07:21:13.775Z,99530.34
2022-11-21T07:23:41.805Z,99537.44
2022-11-21T07:26:11.931Z,99518.25
2022-11-21T07:28:40.098Z,99529.09
2022-11-21T07:31:13.179Z,99532.44
2022-11-21T07:33:43.180Z,99542.09
2022-11-21T07:36:11.467Z,99542.19
2022-11-21T07:38:42.021Z,99538.94
2022-11-21T07:41:10.521Z,99519.38
2022-11-21T07:43:38.549Z,99529.19
2022-11-21T07:46:06.527Z,99526.72
2022-11-21T07:48:34.409Z,99523.38
2022-11-21T07:51:05.508Z,99540.00
2022-11-21T07:53:33.418Z,99545.59
2022-11-21T07:56:02.905Z,99550.03
2022-11-21T07:58:30.907Z,99542.91
2022-11-21T08:00:58.777Z,99540.56
2022-11-21T08:03:26.756Z,99543.34
2022-11-21T08:05:54.769Z,99558.81
2022-11-21T08:08:22.682Z,99551.41
2022-11-21T08:10:51.473Z,99560.59
2022-11-21T08:13:20.857Z,99561.16
2022-11-21T08:15:48.747Z,99552.97
2022-11-21T08:18:19.970Z,99550.84
2022-11-21T08:20:48.178Z,99560.28
2022-11-21T08:23:16.790Z,99548.97
2022-11-21T08:25:45.327Z,99554.19
2022-11-21T08:28:14.043Z,99569.78
2022-11-21T08:30:43.409Z,99544.41
2022-11-21T08:33:11.373Z,99547.59
2022-11-21T08:35:39.404Z,99560.03
2022-11-21T08:38:07.851Z,99523.38
2022-11-21T08:40:36.842Z,99551.00
2022-11-21T08:43:06.753Z,99545.28
2022-11-21T08:45:35.845Z,99537.31
2022-11-21T08:48:05.878Z,99542.28
2022-11-21T08:50:33.834Z,99547.47
2022-11-21T08:53:02.455Z,99533.16
2022-11-21T08:55:30.657Z,99557.03
2022-11-21T08:57:58.576Z,99562.66
2022-11-21T09:00:26.801Z,99560.06
2022-11-21T09:02:54.739Z,99559.25
2022-11-21T09:05:24.653Z,99557.69
2022-11-21T09:07:57.420Z,99548.88
2022-11-21T09:10:25.559Z,99565.59
2022-11-21T09:12:53.530Z,99564.84
2022-11-21T09:15:41.755Z,99574.16
2022-11-21T09:18:09.713Z,99599.69
2022-11-21T09:20:42.329Z,99567.69
2022-11-21T09:23:12.077Z,99565.69
2022-11-21T09:25:40.187Z,99568.34
2022-11-21T09:28:10.813Z,99558.03
2022-11-21T09:30:39.386Z,99557.13
2022-11-21T09:33:09.161Z,99551.41
2022-11-21T09:35:37.227Z,99559.00
2022-11-21T09:38:07.370Z,99566.66
2022-11-21T09:40:36.836Z,99565.44
2022-11-21T09:43:19.729Z,99560.09
2022-11-21T09:45:49.676Z,99569.47
2022-11-21T09:48:22.693Z,99577.22
2022-11-21T09:50:55.462Z,99543.34
2022-11-21T09:53:29.138Z,99568.34
2022-11-21T09:55:59.905Z,99570.84
2022-11-21T09:58:33.573Z,99569.84
2022-11-21T10:01:01.809Z,99579.34
2022-11-21T10:03:32.690Z,99583.25
2022-11-21T10:06:04.769Z,99581.53
2022-11-21T10:08:44.169Z,99562.09
2022-11-21T10:11:22.484Z,99585.88
2022-11-21T10:14:08.120Z,99598.69
2022-11-21T10:16:45.570Z,99593.47
2022-11-21T10:19:34.734Z,99591.16
2022-11-21T10:22:18.865Z,99596.72
2022-11-21T10:24:56.256Z,99606.06
2022-11-21T10:27:32.699Z,99599.56
2022-11-21T10:30:05.523Z,99582.06
2022-11-21T10:32:38.597Z,99572.03
2022-11-21T10:35:16.578Z,99591.69
2022-11-21T10:37:49.392Z,99578.72
2022-11-21T10:40:34.462Z,99584.34
2022-11-21T10:43:27.521Z,99594.53
2022-11-21T10:45:54.803Z,99595.16
2022-11-21T10:48:22.787Z,99581.81
2022-11-21T10:51:09.007Z,99588.75
2022-11-21T10:53:54.247Z,99583.03
2022-11-21T10:56:26.417Z,99588.34
2022-11-21T10:58:57.166Z,99585.97
2022-11-21T11:01:30.917Z,99582.41
2022-11-21T11:04:28.182Z,99593.34
2022-11-21T11:06:58.128Z,99587.59
2022-11-21T11:09:29.396Z,99585.53
2022-11-21T11:12:25.249Z,99571.16
2022-11-21T11:14:55.946Z,99577.56
2022-11-21T11:17:29.374Z,99571.31
2022-11-21T11:20:07.103Z,99576.44
2022-11-21T11:22:35.250Z,99573.50
2022-11-21T11:25:06.064Z,99564.53
2022-11-21T11:27:38.603Z,99571.38
2022-11-21T11:30:08.761Z,99562.81
2022-11-21T11:32:41.474Z,99568.22
2022-11-21T11:35:22.557Z,99570.31
2022-11-21T11:38:03.628Z,99570.00
2022-11-21T11:40:36.901Z,99555.91
2022-11-21T11:43:41.137Z,99567.81
2022-11-21T11:46:36.948Z,99564.78
2022-11-21T11:49:25.121Z,99562.66
2022-11-21T11:51:56.074Z,99565.03
2022-11-21T11:54:29.566Z,99564.47
2022-11-21T11:56:59.878Z,99553.69
2022-11-21T11:59:33.826Z,99560.66
2022-11-21T12:02:11.838Z,99562.56
2022-11-21T12:04:47.127Z,99547.31
2022-11-21T12:10:17.567Z,99557.81
2022-11-21T12:12:50.081Z,99564.63
2022-11-21T12:16:03.283Z,99544.69
2022-11-21T12:18:40.394Z,99566.81
2022-11-21T12:21:13.952Z,99566.81
2022-11-21T12:23:47.469Z,99580.47
2022-11-21T12:26:37.573Z,99573.06
2022-11-21T12:29:22.495Z,99569.06
2022-11-21T12:32:05.434Z,99570.03
2022-11-21T12:34:48.989Z,99572.25
2022-11-21T12:37:29.414Z,99569.28
2022-11-21T12:40:05.067Z,99567.13
2022-11-21T12:42:51.582Z,99551.84
2022-11-21T12:45:32.341Z,99556.50
2022-11-21T12:48:33.543Z,99574.03
2022-11-21T12:51:39.584Z,99577.03
2022-11-21T12:54:34.391Z,99586.47
2022-11-21T12:57:11.434Z,99574.53
2022-11-21T12:59:51.730Z,99582.56
2022-11-21T13:02:31.443Z,99577.16
2022-11-21T13:05:03.981Z,99574.94
2022-11-21T13:07:33.285Z,99577.66
2022-11-21T13:10:03.766Z,99573.16
2022-11-21T13:12:41.162Z,99586.88
2022-11-21T13:15:20.445Z,99594.94
2022-11-21T13:17:54.729Z,99590.63
2022-11-21T13:20:32.491Z,99571.84
2022-11-21T13:23:01.794Z,99580.22
2022-11-21T13:25:53.878Z,99577.84
2022-11-21T13:28:38.248Z,99575.50
2022-11-21T13:31:29.191Z,99577.09
2022-11-21T13:33:57.344Z,99576.59
2022-11-21T13:36:43.403Z,99564.28
2022-11-21T13:39:36.608Z,99569.25
2022-11-21T13:42:30.393Z,99569.25
2022-11-21T13:44:59.034Z,99558.41
2022-11-21T13:47:58.836Z,99571.53
2022-11-21T13:50:38.164Z,99566.69
2022-11-21T13:53:20.088Z,99567.22
2022-11-21T13:55:57.995Z,99582.06
2022-11-21T13:58:43.000Z,99570.06
2022-11-21T14:01:34.817Z,99577.00
2022-11-21T14:04:38.341Z,99576.91
2022-11-21T14:07:25.238Z,99584.75
2022-11-21T14:09:56.727Z,99581.72
2022-11-21T14:12:33.636Z,99576.75
2022-11-21T14:15:18.271Z,99588.19
2022-11-21T14:17:49.723Z,99575.50
2022-11-21T14:20:21.509Z,99572.69
2022-11-21T14:22:57.421Z,99601.06
2022-11-21T14:25:32.474Z,99596.16
2022-11-21T14:28:01.368Z,99589.88
2022-11-21T14:30:31.819Z,99599.91
2022-11-21T14:33:24.344Z,99595.84
2022-11-21T14:35:55.489Z,99591.91
2022-11-21T14:38:24.308Z,99599.56
2022-11-21T14:41:17.297Z,99588.25
2022-11-21T14:43:45.233Z,99594.00
2022-11-21T14:46:15.645Z,99587.59
2022-11-21T14:48:44.013Z,99587.34
2022-11-21T14:51:15.964Z,99577.78
2022-11-21T14:53:47.170Z,99581.84
2022-11-21T14:56:23.663Z,99592.06
2022-11-21T14:58:53.097Z,99580.72
2022-11-21T15:01:22.993Z,99588.00
2022-11-21T15:03:58.067Z,99583.03
2022-11-21T15:06:27.101Z,99580.03
2022-11-21T15:10:11.376Z,99591.44
2022-11-21T15:11:52.409Z,99583.50
2022-11-21T15:14:25.254Z,99578.31
2022-11-21T15:16:57.719Z,99561.91
2022-11-21T15:19:27.783Z,99569.78
2022-11-21T15:21:58.150Z,99562.19
2022-11-21T15:24:32.371Z,99556.00
2022-11-21T15:27:01.735Z,99567.69
2022-11-21T15:29:31.423Z,99567.63
2022-11-21T15:32:15.839Z,99564.56
2022-11-21T15:34:44.437Z,99559.69
2022-11-21T15:37:16.532Z,99565.06
2022-11-21T15:39:48.338Z,99556.19
2022-11-21T15:42:37.005Z,99575.28
2022-11-21T15:45:23.241Z,99570.28
2022-11-21T15:47:51.214Z,99572.19
2022-11-21T15:50:19.143Z,99557.06
2022-11-21T15:52:48.762Z,99566.00
2022-11-21T15:55:20.238Z,99578.28
2022-11-21T15:57:49.698Z,99567.97
2022-11-21T16:00:18.744Z,99566.19
2022-11-21T16:02:47.453Z,99569.56
2022-11-21T16:05:16.533Z,99566.78
2022-11-21T16:07:44.536Z,99568.69
2022-11-21T16:10:19.871Z,99567.75
2022-11-21T16:12:52.132Z,99566.69
2022-11-21T16:15:20.127Z,99575.84
2022-11-21T16:17:48.119Z,99559.13
2022-11-21T16:20:16.327Z,99565.06
2022-11-21T16:22:47.695Z,99560.81
2022-11-21T16:25:17.205Z,99563.50
2022-11-21T16:27:45.143Z,99571.44
2022-11-21T16:30:15.596Z,99565.75
2022-11-21T16:32:43.566Z,99559.69
2022-11-21T16:35:11.478Z,99567.50
2022-11-21T16:37:39.988Z,99564.81
2022-11-21T16:40:09.173Z,99568.00
2022-11-21T16:42:37.268Z,99567.41
2022-11-21T16:45:05.919Z,99562.94
2022-11-21T16:47:36.857Z,99570.41
2022-11-21T16:50:05.556Z,99541.59
2022-11-21T16:52:35.572Z,99567.50
2022-11-21T16:55:04.816Z,99562.47
2022-11-21T16:57:35.306Z,99556.38
2022-11-21T17:00:03.614Z,99551.78
2022-11-21T17:02:31.773Z,99561.63
2022-11-21T17:05:01.351Z,99559.88
2022-11-21T17:07:29.401Z,99561.94
2022-11-21T17:09:57.350Z,99566.66
2022-11-21T17:12:25.497Z,99554.28
2022-11-21T17:14:54.955Z,99554.59
2022-11-21T17:17:23.042Z,99563.06
2022-11-21T17:19:51.055Z,99554.47
2022-11-21T17:22:24.613Z,99559.94
2022-11-21T17:24:53.565Z,99545.78
2022-11-21T17:27:22.012Z,99563.28
2022-11-21T17:29:50.093Z,99562.06
2022-11-21T17:32:18.767Z,99561.94
2022-11-21T17:34:46.843Z,99559.78
2022-11-21T17:37:14.925Z,99570.03
2022-11-21T17:39:44.232Z,99569.94
2022-11-21T17:42:12.135Z,99554.41
2022-11-21T17:44:40.101Z,99560.59
2022-11-21T17:47:08.074Z,99563.47
2022-11-21T17:49:37.231Z,99562.97
2022-11-21T17:52:07.070Z,99553.84
2022-11-21T17:54:35.173Z,99561.78
2022-11-21T17:57:04.727Z,99556.28
2022-11-21T17:59:34.867Z,99563.56
2022-11-21T18:02:03.105Z,99543.50
2022-11-21T18:04:31.357Z,99559.25
2022-11-21T18:06:59.568Z,99552.13
2022-11-21T18:09:28.698Z,99541.00
2022-11-21T18:11:57.777Z,99552.59
2022-11-21T18:14:27.881Z,99558.38
2022-11-21T18:16:56.597Z,99550.25
2022-11-21T18:19:24.555Z,99561.41
2022-11-21T18:21:52.913Z,99557.97
2022-11-21T18:24:20.968Z,99534.38
2022-11-21T18:26:49.117Z,99550.66
2022-11-21T18:32:07.338Z,99538.19
2022-11-21T18:34:35.387Z,99535.34
2022-11-21T18:37:04.339Z,99544.34
2022-11-21T18:39:32.591Z,99551.91
2022-11-21T18:42:01.234Z,99534.38
2022-11-21T18:44:29.253Z,99547.09
2022-11-21T18:46:57.304Z,99547.59
2022-11-21T18:49:27.012Z,99551.41
2022-11-21T18:51:55.505Z,99545.97
2022-11-21T18:54:23.726Z,99541.16
2022-11-21T18:56:51.789Z,99554.19
2022-11-21T18:59:19.755Z,99537.13
2022-11-21T19:01:47.751Z,99540.06
2022-11-21T19:04:15.868Z,99540.75
2022-11-21T19:06:45.165Z,99544.13
2022-11-21T19:09:14.857Z,99535.56
2022-11-21T19:11:42.852Z,99535.03
2022-11-21T19:14:10.924Z,99543.72
2022-11-21T19:16:38.816Z,99541.75
2022-11-21T19:21:56.880Z,99544.53
2022-11-21T19:24:24.826Z,99540.56
2022-11-21T19:26:52.814Z,99537.00
2022-11-21T19:29:20.981Z,99517.19
2022-11-21T19:31:48.899Z,99511.53
2022-11-21T19:34:17.742Z,99524.56
2022-11-21T19:36:46.554Z,99533.38
2022-11-21T19:39:17.403Z,99524.53
2022-11-21T19:41:45.591Z,99519.56
2022-11-21T19:44:13.765Z,99531.13
2022-11-21T19:46:41.775Z,99524.56
2022-11-21T19:49:12.076Z,99537.44
2022-11-21T19:51:41.542Z,99546.34
2022-11-21T19:54:11.150Z,99544.88
2022-11-21T19:56:40.604Z,99530.63
2022-11-21T19:59:11.284Z,99533.03
2022-11-21T20:01:40.121Z,99539.94
2022-11-21T20:04:08.215Z,99537.78
2022-11-21T20:06:38.266Z,99518.88
2022-11-21T20:09:07.930Z,99535.38
2022-11-21T20:11:36.202Z,99534.94
2022-11-21T20:14:06.023Z,99535.03
2022-11-21T20:16:36.201Z,99540.78
2022-11-21T20:19:07.351Z,99543.63
2022-11-21T20:21:35.899Z,99542.81
2022-11-21T20:24:04.754Z,99548.41
2022-11-21T20:26:33.353Z,99546.97
2022-11-21T20:29:01.496Z,99548.97
2022-11-21T20:31:33.190Z,99534.75
2022-11-21T20:34:04.475Z,99541.44
2022-11-21T20:36:36.636Z,99532.00
2022-11-21T20:39:06.754Z,99542.47
2022-11-21T20:41:36.208Z,99541.84
2022-11-21T20:46:55.232Z,99535.13
2022-11-21T20:49:23.231Z,99536.44
2022-11-21T20:54:40.019Z,99517.75
2022-11-21T20:57:13.268Z,99527.47
2022-11-21T20:59:43.096Z,99527.25
2022-11-21T21:02:15.702Z,99518.84
2022-11-21T21:04:43.718Z,99523.13
2022-11-21T21:07:11.720Z,99507.06
2022-11-21T21:09:39.775Z,99519.19
2022-11-21T21:12:08.073Z,99517.34
2022-11-21T21:14:36.361Z,99517.25
2022-11-21T21:17:04.394Z,99513.59
2022-11-21T21:19:33.771Z,99511.59
2022-11-21T21:22:01.788Z,99512.44
2022-11-21T21:24:29.840Z,99519.34
2022-11-21T21:26:57.779Z,99508.41
2022-11-21T21:29:27.199Z,99521.13
2022-11-21T21:31:55.481Z,99508.34
2022-11-21T21:34:23.950Z,99518.84
2022-11-21T21:36:55.209Z,99500.69
2022-11-21T21:39:23.213Z,99500.56
2022-11-21T21:41:51.277Z,99502.41
2022-11-21T21:44:19.775Z,99500.69
2022-11-21T21:46:47.693Z,99493.53
2022-11-21T21:49:15.788Z,99490.97
2022-11-21T21:51:43.705Z,99494.97
2022-11-21T21:54:19.030Z,99493.78
2022-11-21T21:56:47.548Z,99499.44
2022-11-21T21:59:17.876Z,99501.38
2022-11-21T22:01:46.023Z,99491.31
2022-11-21T22:04:14.097Z,99490.66
2022-11-21T22:06:42.072Z,66811.56
2022-11-21T22:09:10.385Z,66811.56
2022-11-21T22:11:40.192Z,66811.56
2022-11-21T22:14:12.430Z,66811.56
2022-11-21T22:16:41.380Z,66811.56
2022-11-21T22:19:10.017Z,66811.56
2022-11-21T22:21:38.923Z,66811.56
2022-11-21T22:24:28.509Z,66811.56
2022-11-21T22:26:58.041Z,66811.56
2022-11-21T22:29:26.435Z,66811.56
2022-11-21T22:31:54.371Z,66811.56
2022-11-21T22:34:25.201Z,66811.56
2022-11-21T22:36:53.173Z,66811.56
2022-11-21T22:39:21.051Z,66811.56
2022-11-21T22:41:49.086Z,66811.56
2022-11-21T22:44:19.072Z,66811.56
2022-11-21T22:46:47.056Z,66811.56
2022-11-21T22:49:15.404Z,66811.56
2022-11-21T22:51:44.853Z,66811.56
2022-11-21T22:54:13.080Z,66811.56
2022-11-21T22:56:41.146Z,66811.56
2022-11-21T22:59:09.069Z,66811.56
2022-11-21T23:01:38.529Z,66811.56
2022-11-21T23:04:06.532Z,66811.56
2022-11-21T23:06:34.541Z,66811.56
2022-11-21T23:09:02.435Z,66811.56
2022-11-21T23:11:36.269Z,66811.56
2022-11-21T23:14:07.833Z,66811.56
2022-11-21T23:16:35.810Z,66811.56
2022-11-21T23:19:05.239Z,66811.56
2022-11-21T23:21:33.381Z,66811.56
2022-11-21T23:24:01.347Z,66811.56
2022-11-21T23:26:29.279Z,66811.56
2022-11-21T23:28:57.217Z,66811.56
2022-11-21T23:31:25.172Z,66811.56
2022-11-21T23:33:53.188Z,66811.56
2022-11-21T23:36:22.523Z,66811.56
2022-11-21T23:38:50.401Z,66811.56
2022-11-21T23:41:18.313Z,66811.56
2022-11-21T23:43:46.253Z,66811.56
2022-11-21T23:46:14.181Z,66811.56
2022-11-21T23:48:42.089Z,66811.56
2022-11-21T23:51:10.531Z,66811.56
2022-11-21T23:53:39.844Z,66811.56
2022-11-21T23:56:07.956Z,66811.56
2022-11-21T23:58:36.100Z,66811.56
